Muncy Valley, Pennsylvania
Current Conditions -  °F | °C
As of 4:54 PM on Thursday 27 Nov 2014 (Local Time) from KIPT Reporting Station
Scattered Clouds Scattered Clouds  
Wind Chill: 29°   Ceiling: Unl
Heat Index: 33°   Visibility: 10mi
Dew Point: 26°   Wind: 5mph
Humidity: 75%   Direction: 260°W
Pressure: 30.05"   Gusts: NA
Location:  41.34°N, 76.59°W
Report Text: KIPT 272154Z 26004KT 10SM SCT070 01/M03 A3005 RMK AO2 SLP180 T00061033
Loading
Personal Weather Stations






























Interactive Weather Map New forecast layout! Learn more

10-Day Weather Forecast

Advertisements
Track Severe Weather on mobile